Time;durP1;ratioP1;P1;durP2;ratioP2;P2;SDS_P1;SDS_P2;PMS_P1;PMS_P2;Temp;Humidity;BMP_temperature;BMP_pressure;BME280_temperature;BME280_humidity;BME280_pressure;Samples;Min_cycle;Max_cycle;Signal;HPM_P1;HPM_P2
2024/01/05 00:01:42;;;;;;;2.33;1.30;;;7.80;99.90;;;;;;4962403;28;20571;-67
2024/01/05 00:04:09;;;;;;;25.77;2.47;;;7.80;99.90;;;;;;4963236;28;21258;-68
2024/01/05 00:06:37;;;;;;;1.23;1.10;;;7.80;99.90;;;;;;4965277;28;20471;-68
2024/01/05 00:09:03;;;;;;;4.60;1.63;;;7.90;99.90;;;;;;4963640;28;20443;-68
2024/01/05 00:11:30;;;;;;;8.83;2.10;;;8.00;99.90;;;;;;4964810;28;20451;-68
2024/01/05 00:13:57;;;;;;;12.43;2.97;;;8.00;99.90;;;;;;4959762;28;20491;-68
2024/01/05 00:16:25;;;;;;;2.20;1.80;;;8.00;99.90;;;;;;4962754;28;21075;-68
2024/01/05 00:18:53;;;;;;;5.20;1.20;;;8.00;99.90;;;;;;4969023;28;20463;-68
2024/01/05 00:21:21;;;;;;;1.83;1.37;;;7.90;99.90;;;;;;4968946;28;20466;-67
2024/01/05 00:23:48;;;;;;;7.63;1.73;;;7.90;99.90;;;;;;4960945;28;20574;-67
2024/01/05 00:26:15;;;;;;;6.90;2.00;;;7.80;99.90;;;;;;4964587;28;20921;-67
2024/01/05 00:28:41;;;;;;;6.00;2.00;;;7.90;99.90;;;;;;4958662;28;20449;-67
2024/01/05 00:31:10;;;;;;;2.80;2.13;;;7.80;99.90;;;;;;4960522;28;20448;-68
2024/01/05 00:33:37;;;;;;;2.10;1.73;;;7.80;99.90;;;;;;4971071;28;20528;-68
2024/01/05 00:36:06;;;;;;;2.30;1.40;;;7.80;99.90;;;;;;4972078;28;20466;-67
2024/01/05 00:38:33;;;;;;;3.30;2.90;;;7.80;99.90;;;;;;4965622;28;20458;-69
2024/01/05 00:41:00;;;;;;;5.83;1.70;;;7.90;99.90;;;;;;4963853;28;20459;-68
2024/01/05 00:43:27;;;;;;;8.03;3.97;;;7.90;99.90;;;;;;4961797;28;20442;-68
2024/01/05 00:45:54;;;;;;;3.33;1.57;;;7.90;99.90;;;;;;4961764;28;20439;-68
2024/01/05 00:48:21;;;;;;;2.17;1.40;;;8.00;99.90;;;;;;4961450;28;20950;-68
2024/01/05 00:50:48;;;;;;;4.93;1.07;;;7.90;99.90;;;;;;4970486;28;20468;-68
2024/01/05 00:53:16;;;;;;;1.30;1.20;;;7.80;99.90;;;;;;4965234;28;20451;-67
2024/01/05 00:55:43;;;;;;;2.60;1.30;;;7.80;99.90;;;;;;4968734;28;20438;-66
2024/01/05 00:58:10;;;;;;;2.97;1.30;;;7.80;99.90;;;;;;4962367;28;20443;-67
2024/01/05 01:00:37;;;;;;;2.90;1.70;;;7.90;99.90;;;;;;4963754;28;20866;-67
2024/01/05 01:03:04;;;;;;;4.93;1.43;;;8.00;99.90;;;;;;4961818;28;20447;-67
2024/01/05 01:05:31;;;;;;;2.00;1.20;;;8.10;99.90;;;;;;4967551;28;20479;-67
2024/01/05 01:07:57;;;;;;;3.00;1.80;;;8.10;99.90;;;;;;4967338;28;20449;-68
2024/01/05 01:10:26;;;;;;;1.80;1.30;;;8.20;99.90;;;;;;4964487;28;20430;-67
2024/01/05 01:12:52;;;;;;;6.23;1.83;;;8.10;99.90;;;;;;4968202;28;20978;-68
2024/01/05 01:15:20;;;;;;;3.80;1.80;;;8.10;99.90;;;;;;4960819;28;20477;-67
2024/01/05 01:17:46;;;;;;;6.50;1.77;;;8.10;99.90;;;;;;4965101;28;20438;-67
2024/01/05 01:20:13;;;;;;;3.27;1.30;;;8.20;99.90;;;;;;4966525;28;20798;-67
2024/01/05 01:22:40;;;;;;;10.40;1.90;;;8.30;99.90;;;;;;4969690;28;20422;-67
2024/01/05 01:25:07;;;;;;;3.70;1.30;;;8.20;99.90;;;;;;4964383;28;20480;-68
2024/01/05 01:27:35;;;;;;;2.10;1.53;;;8.20;99.90;;;;;;4970685;28;20437;-67
2024/01/05 01:30:02;;;;;;;2.60;2.23;;;8.10;99.90;;;;;;4960329;28;20475;-67
2024/01/05 01:32:29;;;;;;;2.50;1.47;;;8.20;99.90;;;;;;4956778;28;20961;-68
2024/01/05 01:34:56;;;;;;;2.90;1.63;;;8.30;99.90;;;;;;4960199;28;20576;-67
2024/01/05 01:37:23;;;;;;;1.90;1.10;;;8.30;99.90;;;;;;4961103;28;20455;-67
2024/01/05 01:39:50;;;;;;;1.90;1.20;;;8.20;99.90;;;;;;4963169;28;20466;-67
2024/01/05 01:42:17;;;;;;;3.90;1.80;;;8.30;99.90;;;;;;4961455;28;20446;-67
2024/01/05 01:44:45;;;;;;;6.30;1.57;;;8.40;99.90;;;;;;4967122;28;20484;-67
2024/01/05 01:47:12;;;;;;;1.20;1.10;;;8.50;99.90;;;;;;4960100;28;20592;-67
2024/01/05 01:49:39;;;;;;;3.73;2.33;;;8.70;99.90;;;;;;4959843;28;20438;-67
2024/01/05 01:52:08;;;;;;;9.07;1.73;;;8.70;99.90;;;;;;4960874;28;20512;-66
2024/01/05 01:54:35;;;;;;;2.13;1.80;;;8.80;99.90;;;;;;4959679;28;20516;-67
2024/01/05 01:57:05;;;;;;;8.43;2.43;;;8.90;99.90;;;;;;4964058;28;20467;-67
2024/01/05 01:59:32;;;;;;;2.70;1.67;;;8.70;99.90;;;;;;4961297;28;20844;-67
2024/01/05 02:02:00;;;;;;;5.13;1.63;;;8.70;99.90;;;;;;4961573;28;20448;-67
2024/01/05 02:04:29;;;;;;;4.03;1.37;;;8.70;99.90;;;;;;4960624;28;20433;-67
2024/01/05 02:06:56;;;;;;;1.43;1.10;;;8.70;99.90;;;;;;4963966;28;20442;-67
2024/01/05 02:09:23;;;;;;;8.93;1.60;;;8.70;99.90;;;;;;4955694;28;20475;-66
2024/01/05 02:11:50;;;;;;;7.90;1.40;;;8.70;99.90;;;;;;4959217;28;20466;-66
2024/01/05 02:14:17;;;;;;;2.57;1.70;;;8.80;99.90;;;;;;4965080;28;20482;-66
2024/01/05 02:16:44;;;;;;;2.03;1.30;;;8.70;99.90;;;;;;4961853;28;21010;-67
2024/01/05 02:19:12;;;;;;;1.53;1.13;;;8.80;99.90;;;;;;4962293;28;20447;-66
2024/01/05 02:21:43;;;;;;;17.97;2.27;;;8.70;99.90;;;;;;4961969;28;20471;-66
2024/01/05 02:24:11;;;;;;;5.80;1.60;;;8.70;99.90;;;;;;4956142;28;20446;-67
2024/01/05 02:26:38;;;;;;;2.63;1.97;;;8.70;99.90;;;;;;4962045;28;20466;-67
2024/01/05 02:29:05;;;;;;;2.60;1.50;;;8.80;99.90;;;;;;4967584;28;20414;-67
2024/01/05 02:31:32;;;;;;;1.83;1.53;;;8.80;99.90;;;;;;4963470;28;20463;-67
2024/01/05 02:33:58;;;;;;;2.93;1.43;;;8.80;99.90;;;;;;4965434;28;20486;-66
2024/01/05 02:36:25;;;;;;;5.00;1.70;;;8.80;99.90;;;;;;4963619;28;20459;-67
2024/01/05 02:38:52;;;;;;;3.93;1.63;;;8.80;99.90;;;;;;4962478;28;20470;-67
2024/01/05 02:41:20;;;;;;;3.20;1.87;;;8.80;99.90;;;;;;4961826;28;20483;-67
2024/01/05 02:43:47;;;;;;;4.40;1.50;;;8.80;99.90;;;;;;4965609;28;20467;-67
2024/01/05 02:46:13;;;;;;;24.80;1.53;;;8.80;99.90;;;;;;4961092;28;20436;-67
2024/01/05 02:48:40;;;;;;;3.40;1.37;;;8.60;99.90;;;;;;4967669;28;20438;-68
2024/01/05 02:51:07;;;;;;;8.67;3.20;;;8.50;99.90;;;;;;4958283;28;20479;-67
2024/01/05 02:53:34;;;;;;;1.50;1.40;;;8.40;99.90;;;;;;4960996;28;20486;-68
2024/01/05 02:56:00;;;;;;;4.50;1.13;;;8.30;99.90;;;;;;4958591;28;20492;-68
2024/01/05 02:58:28;;;;;;;4.20;1.20;;;8.20;99.90;;;;;;4961663;28;20465;-68
2024/01/05 03:00:55;;;;;;;4.00;1.33;;;8.20;99.90;;;;;;4960165;28;20487;-70
2024/01/05 03:03:22;;;;;;;3.53;1.30;;;8.20;99.90;;;;;;4955672;28;20468;-68
2024/01/05 03:05:49;;;;;;;10.00;1.90;;;8.10;99.90;;;;;;4964366;28;20580;-68
2024/01/05 03:08:15;;;;;;;5.50;2.47;;;8.10;99.90;;;;;;4956512;28;20479;-68
2024/01/05 03:10:42;;;;;;;9.80;1.20;;;8.00;99.90;;;;;;4959828;28;20840;-70
2024/01/05 03:13:09;;;;;;;3.53;1.73;;;7.90;99.90;;;;;;4964009;28;20478;-68
2024/01/05 03:15:37;;;;;;;2.47;1.37;;;7.90;99.90;;;;;;4965329;28;20491;-68
2024/01/05 03:18:04;;;;;;;3.73;1.57;;;7.90;99.90;;;;;;4968490;28;20441;-68
2024/01/05 03:20:31;;;;;;;2.10;1.37;;;7.80;99.90;;;;;;4960248;28;20554;-68
2024/01/05 03:22:58;;;;;;;4.00;1.67;;;7.80;99.90;;;;;;4964288;28;20769;-68
2024/01/05 03:25:24;;;;;;;2.10;1.10;;;7.70;99.90;;;;;;4963083;28;20512;-67
2024/01/05 03:27:51;;;;;;;4.63;1.80;;;7.70;99.90;;;;;;4962072;28;20482;-67
2024/01/05 03:30:18;;;;;;;4.57;1.57;;;7.70;99.90;;;;;;4962509;28;20470;-67
2024/01/05 03:32:46;;;;;;;2.87;2.10;;;7.70;99.90;;;;;;4966418;28;20430;-68
2024/01/05 03:35:13;;;;;;;4.80;1.93;;;7.70;99.90;;;;;;4964306;28;20513;-68
2024/01/05 03:37:40;;;;;;;3.43;1.40;;;7.70;99.90;;;;;;4964364;28;20477;-67
2024/01/05 03:40:08;;;;;;;5.00;1.40;;;7.70;99.90;;;;;;4963049;28;20466;-68
2024/01/05 03:42:35;;;;;;;2.57;1.30;;;7.80;99.90;;;;;;4961648;28;20526;-68
2024/01/05 03:45:01;;;;;;;3.70;1.40;;;7.70;99.90;;;;;;4962298;28;20562;-67
2024/01/05 03:47:28;;;;;;;2.33;1.57;;;7.80;99.90;;;;;;4969423;28;20448;-69
2024/01/05 03:49:56;;;;;;;2.07;1.40;;;7.80;99.90;;;;;;4959064;28;20447;-67
2024/01/05 03:52:23;;;;;;;2.47;1.63;;;7.80;99.90;;;;;;4972203;28;20455;-67
2024/01/05 03:54:50;;;;;;;9.03;1.40;;;7.80;99.90;;;;;;4968588;28;20487;-67
2024/01/05 03:57:17;;;;;;;2.20;1.70;;;7.90;99.90;;;;;;4963617;28;20448;-67
2024/01/05 03:59:43;;;;;;;2.30;1.50;;;7.80;99.90;;;;;;4954890;28;20923;-68
2024/01/05 04:02:10;;;;;;;1.63;1.10;;;7.70;99.90;;;;;;4962816;28;20969;-67
2024/01/05 04:04:37;;;;;;;6.23;1.10;;;7.70;99.90;;;;;;4961322;28;20498;-66
2024/01/05 04:07:05;;;;;;;3.33;1.60;;;7.70;99.90;;;;;;4965466;28;20421;-67
2024/01/05 04:09:32;;;;;;;2.60;2.03;;;7.70;99.90;;;;;;4963320;28;20425;-67
2024/01/05 04:11:59;;;;;;;2.97;1.60;;;7.70;99.90;;;;;;4971317;28;20938;-67
2024/01/05 04:14:26;;;;;;;9.27;2.80;;;7.80;99.90;;;;;;4965191;28;20442;-68
2024/01/05 04:16:53;;;;;;;1.80;1.23;;;7.70;99.90;;;;;;4965036;28;20473;-68
2024/01/05 04:19:19;;;;;;;7.07;2.30;;;7.60;99.90;;;;;;4967028;28;20428;-67
2024/01/05 04:21:46;;;;;;;2.20;1.60;;;7.50;99.90;;;;;;4969013;28;20563;-68
2024/01/05 04:24:15;;;;;;;2.03;1.20;;;7.50;99.90;;;;;;4959665;28;20481;-68
2024/01/05 04:26:41;;;;;;;6.37;2.30;;;7.50;99.90;;;;;;4966591;28;20988;-68
2024/01/05 04:29:08;;;;;;;1.50;1.30;;;7.60;99.90;;;;;;4967911;28;20426;-68
2024/01/05 04:31:35;;;;;;;1.93;1.30;;;7.70;99.90;;;;;;4965200;28;20914;-67
2024/01/05 04:34:03;;;;;;;1.67;1.13;;;7.80;99.90;;;;;;4961894;28;20447;-68
2024/01/05 04:36:30;;;;;;;2.37;1.30;;;7.80;99.90;;;;;;4967920;28;20506;-68
2024/01/05 04:38:56;;;;;;;4.07;1.60;;;7.90;99.90;;;;;;4963792;28;20631;-69
2024/01/05 04:41:26;;;;;;;5.73;1.33;;;8.10;99.90;;;;;;4969343;28;20946;-67
2024/01/05 04:43:52;;;;;;;4.77;1.90;;;8.20;99.90;;;;;;4962422;28;21171;-68
2024/01/05 04:46:19;;;;;;;4.83;1.20;;;8.30;99.90;;;;;;4967906;28;20458;-68
2024/01/05 04:48:46;;;;;;;2.23;1.00;;;8.40;99.90;;;;;;4964496;28;20463;-67
2024/01/05 04:51:13;;;;;;;1.70;1.40;;;8.40;99.90;;;;;;4964328;28;20856;-67
2024/01/05 04:53:40;;;;;;;2.93;1.43;;;8.30;99.90;;;;;;4964568;28;20562;-68
2024/01/05 04:56:07;;;;;;;7.23;1.63;;;8.40;99.90;;;;;;4968352;28;20487;-66
2024/01/05 04:58:35;;;;;;;1.00;0.90;;;8.40;99.90;;;;;;4963787;28;20792;-67
2024/01/05 05:01:02;;;;;;;1.40;1.20;;;8.60;99.90;;;;;;4962979;28;20482;-68
2024/01/05 05:03:30;;;;;;;9.30;1.37;;;8.50;99.90;;;;;;4970413;28;20589;-67
2024/01/05 05:05:57;;;;;;;3.30;1.40;;;8.60;99.90;;;;;;4969034;28;20458;-68
2024/01/05 05:08:24;;;;;;;1.50;1.10;;;8.60;99.90;;;;;;4962926;28;20427;-66
2024/01/05 05:10:51;;;;;;;5.87;1.87;;;8.60;99.90;;;;;;4962807;28;20453;-67
2024/01/05 05:13:18;;;;;;;3.10;1.10;;;8.60;99.90;;;;;;4961286;28;20468;-67
2024/01/05 05:15:46;;;;;;;1.63;1.53;;;8.60;99.90;;;;;;4963405;28;20834;-67
2024/01/05 05:18:13;;;;;;;1.07;0.97;;;8.60;99.90;;;;;;4963650;28;20467;-67
2024/01/05 05:20:39;;;;;;;1.10;1.00;;;8.60;99.90;;;;;;4970702;28;20473;-67
2024/01/05 05:23:06;;;;;;;2.30;1.43;;;8.70;99.90;;;;;;4965792;28;20841;-67
2024/01/05 05:25:33;;;;;;;3.77;1.20;;;8.60;99.90;;;;;;4961855;28;20455;-66
2024/01/05 05:28:00;;;;;;;4.10;1.50;;;8.70;99.90;;;;;;4957377;28;20869;-67
2024/01/05 05:30:27;;;;;;;1.57;1.33;;;8.70;99.90;;;;;;4966173;28;20463;-68
2024/01/05 05:32:55;;;;;;;3.33;2.30;;;8.60;99.90;;;;;;4963221;28;20472;-67
2024/01/05 05:35:22;;;;;;;1.67;1.40;;;8.60;99.90;;;;;;4958076;28;20502;-67
2024/01/05 05:37:48;;;;;;;7.13;1.77;;;8.70;99.90;;;;;;4960434;28;20472;-68
2024/01/05 05:40:15;;;;;;;16.73;1.30;;;8.70;99.90;;;;;;4967549;28;20455;-68
2024/01/05 05:42:42;;;;;;;5.80;1.60;;;8.70;99.90;;;;;;4958947;28;20458;-68
2024/01/05 05:45:10;;;;;;;3.83;1.87;;;8.80;99.90;;;;;;4958702;28;20489;-68
2024/01/05 05:47:37;;;;;;;1.10;1.00;;;8.80;99.90;;;;;;4965344;28;20976;-65
2024/01/05 05:50:06;;;;;;;1.40;1.10;;;8.80;99.90;;;;;;4963363;28;20459;-67
2024/01/05 05:52:34;;;;;;;1.80;1.37;;;8.80;99.90;;;;;;4959816;28;20601;-69
2024/01/05 05:55:01;;;;;;;4.43;1.20;;;8.80;99.90;;;;;;4955827;28;20471;-67
2024/01/05 05:57:28;;;;;;;3.77;1.20;;;8.80;99.90;;;;;;4965265;28;20422;-67
2024/01/05 05:59:55;;;;;;;1.40;1.10;;;8.80;99.90;;;;;;4961496;28;20825;-67
2024/01/05 06:02:21;;;;;;;1.10;0.93;;;8.80;99.90;;;;;;4959841;28;20519;-67
2024/01/05 06:04:48;;;;;;;8.00;1.77;;;8.80;99.90;;;;;;4963192;28;20479;-68
2024/01/05 06:07:16;;;;;;;1.00;0.83;;;8.80;99.90;;;;;;4960588;28;20448;-67
2024/01/05 06:09:43;;;;;;;1.20;1.10;;;8.70;99.90;;;;;;4963968;28;20435;-68
2024/01/05 06:12:10;;;;;;;0.90;0.63;;;8.70;99.90;;;;;;4961932;28;20471;-68
2024/01/05 06:14:38;;;;;;;1.00;0.90;;;8.80;99.90;;;;;;4960890;28;20483;-67
2024/01/05 06:17:04;;;;;;;1.67;1.10;;;8.80;99.90;;;;;;4964563;28;20488;-67
2024/01/05 06:19:31;;;;;;;1.50;0.90;;;8.70;99.90;;;;;;4962375;28;20475;-68
2024/01/05 06:21:59;;;;;;;3.03;1.40;;;8.50;99.90;;;;;;4962186;28;20456;-67
2024/01/05 06:24:29;;;;;;;1.30;1.10;;;8.40;99.90;;;;;;4959399;28;20474;-67
2024/01/05 06:26:55;;;;;;;1.50;1.33;;;8.40;99.90;;;;;;4963608;28;20524;-67
2024/01/05 06:29:22;;;;;;;1.47;1.27;;;8.30;99.90;;;;;;4958687;28;20464;-67
2024/01/05 06:31:49;;;;;;;3.33;1.73;;;8.30;99.90;;;;;;4963752;28;20474;-67
2024/01/05 06:34:16;;;;;;;1.60;1.30;;;8.20;99.90;;;;;;4958474;28;20989;-69
2024/01/05 06:36:43;;;;;;;1.73;1.63;;;8.20;99.90;;;;;;4964317;28;20494;-67
2024/01/05 06:39:10;;;;;;;2.30;1.33;;;8.20;99.90;;;;;;4963173;28;20471;-67
2024/01/05 06:41:38;;;;;;;2.70;1.93;;;8.20;99.90;;;;;;4963499;28;20462;-67
2024/01/05 06:44:05;;;;;;;2.00;1.50;;;8.10;99.90;;;;;;4960327;28;20978;-66
2024/01/05 06:46:32;;;;;;;1.63;1.20;;;8.10;99.90;;;;;;4967942;28;21205;-67
2024/01/05 06:49:00;;;;;;;1.80;1.30;;;8.10;99.90;;;;;;4960560;28;20924;-67
2024/01/05 06:51:29;;;;;;;2.77;1.53;;;8.10;99.90;;;;;;4965286;28;20467;-67
2024/01/05 06:53:56;;;;;;;3.67;0.90;;;8.10;99.90;;;;;;4965332;28;20506;-67
2024/01/05 06:56:23;;;;;;;2.17;1.20;;;8.00;99.90;;;;;;4966549;28;20993;-67
2024/01/05 06:58:51;;;;;;;3.63;1.37;;;8.00;99.90;;;;;;4969500;28;20783;-67
2024/01/05 07:01:18;;;;;;;0.90;0.73;;;8.00;99.90;;;;;;4966472;28;20829;-67
2024/01/05 07:03:45;;;;;;;1.00;0.80;;;8.00;99.90;;;;;;4978122;28;20529;-68
2024/01/05 07:06:12;;;;;;;8.83;1.30;;;8.00;99.90;;;;;;4965314;28;20460;-67
2024/01/05 07:08:39;;;;;;;6.50;1.40;;;7.90;99.90;;;;;;4961700;28;20451;-67
2024/01/05 07:11:06;;;;;;;1.57;1.10;;;8.00;99.90;;;;;;4968226;28;20455;-68
2024/01/05 07:13:32;;;;;;;1.60;0.90;;;8.00;99.90;;;;;;4972388;28;20497;-70
2024/01/05 07:16:01;;;;;;;7.33;2.30;;;8.10;99.90;;;;;;4969183;28;20489;-67
2024/01/05 07:18:27;;;;;;;3.83;1.43;;;8.10;99.90;;;;;;4962465;28;20462;-68
2024/01/05 07:20:54;;;;;;;3.50;1.10;;;8.20;99.90;;;;;;4971422;28;20459;-67
2024/01/05 07:23:21;;;;;;;7.70;1.20;;;8.30;99.90;;;;;;4963220;28;20436;-67
2024/01/05 07:25:48;;;;;;;1.87;1.20;;;8.40;99.90;;;;;;4960610;28;20463;-67
2024/01/05 07:28:15;;;;;;;4.57;1.57;;;8.50;99.90;;;;;;4966128;28;20452;-68
2024/01/05 07:30:41;;;;;;;1.93;1.10;;;8.50;99.90;;;;;;4964057;28;20459;-68
2024/01/05 07:33:09;;;;;;;1.73;1.63;;;8.60;99.90;;;;;;4963204;28;20486;-68
2024/01/05 07:35:35;;;;;;;1.17;1.07;;;8.60;99.90;;;;;;4968647;28;20501;-67
2024/01/05 07:38:02;;;;;;;3.83;1.10;;;8.70;99.90;;;;;;4962964;28;20971;-69
2024/01/05 07:40:29;;;;;;;1.10;1.00;;;8.70;99.90;;;;;;4968042;28;20265;-68
2024/01/05 07:42:56;;;;;;;4.57;1.60;;;8.70;99.90;;;;;;4964267;28;20456;-68
2024/01/05 07:45:23;;;;;;;2.60;1.37;;;8.80;99.90;;;;;;4972122;28;20502;-68
2024/01/05 07:47:50;;;;;;;2.00;1.30;;;8.90;99.90;;;;;;4970856;28;20422;-68
2024/01/05 07:50:18;;;;;;;5.40;1.70;;;9.00;99.90;;;;;;4965733;28;21146;-68
2024/01/05 07:52:45;;;;;;;1.43;1.17;;;9.00;99.90;;;;;;4957460;28;20665;-68
2024/01/05 07:55:12;;;;;;;2.70;1.27;;;8.90;99.90;;;;;;4967346;28;20478;-68
2024/01/05 07:57:39;;;;;;;3.37;1.60;;;8.80;99.90;;;;;;4961561;28;20483;-68
2024/01/05 08:00:07;;;;;;;1.23;1.10;;;8.90;99.90;;;;;;4968819;28;20505;-68
2024/01/05 08:02:34;;;;;;;9.50;1.23;;;8.90;99.90;;;;;;4965753;28;20826;-68
2024/01/05 08:05:01;;;;;;;2.90;1.27;;;8.90;99.90;;;;;;4966617;28;20482;-67
2024/01/05 08:07:29;;;;;;;2.10;1.20;;;9.00;99.90;;;;;;4967695;28;20446;-67
2024/01/05 08:09:56;;;;;;;4.70;4.20;;;8.90;99.90;;;;;;4968347;28;20438;-67
2024/01/05 08:12:22;;;;;;;7.87;1.27;;;8.90;99.90;;;;;;4964391;28;20438;-67
2024/01/05 08:14:49;;;;;;;2.07;1.67;;;9.00;99.90;;;;;;4961716;28;20474;-67
2024/01/05 08:17:20;;;;;;;15.20;1.37;;;9.00;99.90;;;;;;4965633;28;20458;-68
2024/01/05 08:19:47;;;;;;;2.23;0.90;;;9.10;99.90;;;;;;4964203;28;20503;-68
2024/01/05 08:22:14;;;;;;;1.63;1.10;;;9.10;99.90;;;;;;4962762;28;20784;-69
2024/01/05 08:24:42;;;;;;;7.40;1.60;;;9.30;99.90;;;;;;4958738;28;20988;-67
2024/01/05 08:27:08;;;;;;;3.40;2.43;;;9.40;99.90;;;;;;4965858;28;20439;-66
2024/01/05 08:29:36;;;;;;;2.57;1.00;;;9.30;99.90;;;;;;4969229;28;20634;-67
2024/01/05 08:32:03;;;;;;;2.50;0.80;;;9.30;99.90;;;;;;4963519;28;20546;-66
2024/01/05 08:34:30;;;;;;;2.80;1.80;;;9.40;99.90;;;;;;4966851;28;20449;-67
2024/01/05 08:36:56;;;;;;;3.73;1.40;;;9.50;99.90;;;;;;4967594;28;20491;-67
2024/01/05 08:39:23;;;;;;;2.90;1.27;;;9.50;99.90;;;;;;4960604;28;20483;-68
2024/01/05 08:41:51;;;;;;;1.97;1.50;;;9.60;99.90;;;;;;4966954;28;20467;-67
2024/01/05 08:44:19;;;;;;;2.73;1.57;;;9.60;99.90;;;;;;4958215;28;20467;-67
2024/01/05 08:46:46;;;;;;;5.63;1.30;;;9.60;99.90;;;;;;4962351;28;20460;-67
2024/01/05 08:49:13;;;;;;;5.03;1.03;;;9.50;99.90;;;;;;4963983;28;20460;-70
2024/01/05 08:51:43;;;;;;;1.33;1.13;;;9.40;99.90;;;;;;4961804;28;20464;-67
2024/01/05 08:54:09;;;;;;;1.00;0.80;;;9.40;99.90;;;;;;4957646;28;20495;-67
2024/01/05 08:56:36;;;;;;;5.23;1.47;;;9.40;99.90;;;;;;4967830;28;20485;-67
2024/01/05 08:59:05;;;;;;;2.13;1.50;;;9.50;99.90;;;;;;4972465;28;21320;-67
2024/01/05 09:01:33;;;;;;;1.83;1.10;;;9.60;99.90;;;;;;4965446;28;20905;-69
2024/01/05 09:04:00;;;;;;;0.90;0.80;;;9.50;99.90;;;;;;4967211;28;20483;-67
2024/01/05 09:06:27;;;;;;;1.37;0.80;;;9.50;99.90;;;;;;4971505;28;20459;-67
2024/01/05 09:08:53;;;;;;;1.40;0.90;;;9.50;99.90;;;;;;4960387;28;20983;-68
2024/01/05 09:11:20;;;;;;;4.50;1.33;;;9.50;99.90;;;;;;4964915;28;20499;-67
2024/01/05 09:13:47;;;;;;;1.87;1.43;;;9.60;99.90;;;;;;4956826;28;20499;-67
2024/01/05 09:16:15;;;;;;;2.10;1.50;;;9.80;99.90;;;;;;4962948;28;20586;-68
2024/01/05 09:18:42;;;;;;;2.60;1.00;;;9.80;99.90;;;;;;4959677;28;20440;-68
2024/01/05 09:21:10;;;;;;;2.30;1.10;;;9.80;99.90;;;;;;4963068;28;20500;-67
2024/01/05 09:23:37;;;;;;;0.90;0.70;;;9.80;99.90;;;;;;4961922;28;20556;-68
2024/01/05 09:26:04;;;;;;;1.10;0.80;;;9.80;99.90;;;;;;4962731;28;20461;-67
2024/01/05 09:28:30;;;;;;;1.83;1.10;;;9.80;99.90;;;;;;4956117;28;20969;-68
2024/01/05 09:30:57;;;;;;;3.40;1.40;;;9.90;99.90;;;;;;4962360;28;20484;-67
2024/01/05 09:33:25;;;;;;;1.87;1.60;;;9.90;99.90;;;;;;4965160;28;20475;-67
2024/01/05 09:35:52;;;;;;;2.57;1.37;;;10.00;99.90;;;;;;4962069;28;20449;-69
2024/01/05 09:38:19;;;;;;;1.10;1.00;;;9.90;99.90;;;;;;4963514;28;20439;-68
2024/01/05 09:40:47;;;;;;;2.07;1.20;;;9.90;99.90;;;;;;4965942;28;20463;-67
2024/01/05 09:43:16;;;;;;;3.27;1.50;;;9.80;99.90;;;;;;4960433;28;20459;-67
2024/01/05 09:45:45;;;;;;;1.30;1.10;;;9.80;99.90;;;;;;4963672;28;20497;-68
2024/01/05 09:48:13;;;;;;;1.20;1.10;;;9.80;99.90;;;;;;4960730;28;20439;-67
2024/01/05 09:50:43;;;;;;;1.30;1.00;;;9.70;99.90;;;;;;4964409;28;20558;-68
2024/01/05 09:53:11;;;;;;;1.00;0.90;;;9.60;99.90;;;;;;4966912;28;20435;-68
2024/01/05 09:55:38;;;;;;;1.30;0.93;;;9.60;99.90;;;;;;4960969;28;20499;-67
2024/01/05 09:58:05;;;;;;;1.30;0.70;;;9.50;99.90;;;;;;4961178;28;20502;-66
2024/01/05 10:00:35;;;;;;;1.00;0.70;;;9.40;99.90;;;;;;4978410;23;20439;-69
2024/01/05 10:03:07;;;;;;;3.37;1.43;;;9.50;99.90;;;;;;4983660;28;20582;-68
2024/01/05 10:05:34;;;;;;;0.93;0.70;;;9.50;99.90;;;;;;4984853;28;21007;-68
2024/01/05 10:08:04;;;;;;;1.10;0.80;;;9.50;99.90;;;;;;4989607;28;20877;-68
2024/01/05 10:10:47;;;;;;;0.90;0.70;;;9.50;99.90;;;;;;4985985;28;21216;-67
2024/01/05 10:13:14;;;;;;;0.90;0.80;;;9.40;99.90;;;;;;4985892;28;20462;-68
2024/01/05 10:15:57;;;;;;;1.40;0.80;;;9.50;99.90;;;;;;4986458;28;20461;-68
2024/01/05 10:18:24;;;;;;;1.00;0.80;;;9.70;99.90;;;;;;4985935;28;20489;-68
2024/01/05 10:20:51;;;;;;;1.03;0.77;;;9.80;99.90;;;;;;4988401;28;20473;-68
2024/01/05 10:23:20;;;;;;;1.10;0.80;;;9.90;99.90;;;;;;4986764;28;20841;-69
2024/01/05 10:25:47;;;;;;;1.27;1.07;;;9.90;99.90;;;;;;4981598;28;20480;-69
2024/01/05 10:28:27;;;;;;;3.77;0.83;;;9.80;99.90;;;;;;4983561;28;20462;-68
2024/01/05 10:31:13;;;;;;;0.90;0.60;;;9.80;99.90;;;;;;4981558;28;20445;-68
2024/01/05 10:33:50;;;;;;;2.03;1.00;;;9.90;99.90;;;;;;4988761;28;20481;-68
2024/01/05 10:36:20;;;;;;;1.00;0.70;;;9.90;99.90;;;;;;4988932;28;20489;-68
2024/01/05 10:38:49;;;;;;;1.00;0.80;;;9.80;99.90;;;;;;4983705;28;20521;-69
2024/01/05 10:41:17;;;;;;;0.90;0.70;;;9.80;99.90;;;;;;4987538;28;20445;-69
2024/01/05 10:43:44;;;;;;;2.60;1.33;;;9.70;99.90;;;;;;4981595;28;20470;-68
2024/01/05 10:46:12;;;;;;;2.00;1.00;;;9.80;99.90;;;;;;4982211;28;20476;-69
2024/01/05 10:48:40;;;;;;;0.90;0.60;;;9.80;99.90;;;;;;4982425;28;20447;-69
2024/01/05 10:51:07;;;;;;;1.20;1.00;;;9.80;99.90;;;;;;4986827;28;20454;-67
2024/01/05 10:53:35;;;;;;;1.00;0.80;;;9.80;99.90;;;;;;4986486;28;20493;-68
2024/01/05 10:56:05;;;;;;;1.50;0.80;;;9.80;99.90;;;;;;4985406;28;20477;-69
2024/01/05 10:58:32;;;;;;;1.10;0.80;;;9.80;99.90;;;;;;4982760;28;20478;-68
2024/01/05 11:01:01;;;;;;;1.40;0.90;;;9.70;99.90;;;;;;4987052;28;20473;-68
2024/01/05 11:03:34;;;;;;;1.50;0.90;;;9.70;99.90;;;;;;4985299;28;21026;-69
2024/01/05 11:06:02;;;;;;;1.23;0.80;;;9.60;99.90;;;;;;4984365;28;20462;-69
2024/01/05 11:08:37;;;;;;;0.90;0.70;;;9.60;99.90;;;;;;4981593;28;20513;-69
2024/01/05 11:11:15;;;;;;;1.30;0.80;;;9.60;99.90;;;;;;4982207;28;20453;-68
2024/01/05 11:14:05;;;;;;;0.90;0.70;;;9.60;99.90;;;;;;4978429;28;20459;-68
2024/01/05 11:17:15;;;;;;;0.90;0.80;;;9.60;99.90;;;;;;4981946;28;20474;-69
2024/01/05 11:19:53;;;;;;;0.90;0.60;;;9.50;99.90;;;;;;4984927;28;20533;-69
2024/01/05 11:22:27;;;;;;;0.90;0.67;;;9.30;99.90;;;;;;4979334;28;20542;-68
2024/01/05 11:24:55;;;;;;;1.30;0.70;;;9.30;99.90;;;;;;4982833;28;20488;-68
2024/01/05 11:27:30;;;;;;;1.00;0.73;;;9.30;99.90;;;;;;4981595;28;20466;-69
2024/01/05 11:29:57;;;;;;;1.20;0.80;;;9.30;99.90;;;;;;4985596;28;20453;-69
2024/01/05 11:32:37;;;;;;;0.90;0.70;;;9.30;99.90;;;;;;4987576;28;20465;-68
2024/01/05 11:35:31;;;;;;;0.90;0.60;;;9.20;99.90;;;;;;4986515;28;20444;-70
2024/01/05 11:37:58;;;;;;;1.10;1.00;;;9.20;99.90;;;;;;4984356;28;20497;-69
2024/01/05 11:40:29;;;;;;;1.00;0.87;;;9.30;99.90;;;;;;4990699;28;20458;-69
2024/01/05 11:42:58;;;;;;;1.13;0.90;;;9.30;99.90;;;;;;4986240;28;20475;-69
2024/01/05 11:45:48;;;;;;;1.70;0.70;;;9.30;99.90;;;;;;4988204;28;21349;-67
2024/01/05 11:48:45;;;;;;;0.90;0.70;;;9.40;99.90;;;;;;4980042;28;20449;-68
2024/01/05 11:51:12;;;;;;;2.00;1.20;;;9.30;99.90;;;;;;4984816;28;20461;-67
2024/01/05 11:53:39;;;;;;;1.00;0.80;;;9.40;99.90;;;;;;4980008;28;20493;-68
2024/01/05 11:56:10;;;;;;;1.00;0.70;;;9.40;99.90;;;;;;4986375;28;20474;-67
2024/01/05 11:58:41;;;;;;;1.00;0.77;;;9.30;99.90;;;;;;4986848;28;20779;-67
2024/01/05 12:01:09;;;;;;;0.90;0.70;;;9.40;99.90;;;;;;4990470;28;20497;-68
2024/01/05 12:03:38;;;;;;;1.10;0.70;;;9.50;99.90;;;;;;4987716;28;21302;-67
2024/01/05 12:06:06;;;;;;;1.30;1.03;;;9.40;99.90;;;;;;4988362;28;20462;-68
2024/01/05 12:08:34;;;;;;;1.00;0.80;;;9.30;99.90;;;;;;4987138;28;20446;-68
2024/01/05 12:11:03;;;;;;;0.90;0.60;;;9.40;99.90;;;;;;4990181;28;20470;-68
2024/01/05 12:13:32;;;;;;;0.90;0.70;;;9.50;99.90;;;;;;4986711;28;20978;-68
2024/01/05 12:16:02;;;;;;;1.10;1.00;;;9.60;99.90;;;;;;4986005;28;20464;-68
2024/01/05 12:18:30;;;;;;;2.70;0.97;;;9.80;99.90;;;;;;4983791;28;20461;-68
2024/01/05 12:20:58;;;;;;;1.43;0.80;;;9.80;99.90;;;;;;4985874;28;20589;-68
2024/01/05 12:23:25;;;;;;;2.43;1.43;;;9.80;99.90;;;;;;4987678;28;20462;-68
2024/01/05 12:25:59;;;;;;;3.10;1.17;;;9.60;99.90;;;;;;4985135;28;20521;-68
2024/01/05 12:28:28;;;;;;;5.47;1.20;;;9.50;99.90;;;;;;4986289;28;20496;-68
2024/01/05 12:30:55;;;;;;;2.43;1.17;;;9.50;99.90;;;;;;4986377;28;20541;-68
2024/01/05 12:33:24;;;;;;;1.23;1.10;;;9.40;99.90;;;;;;4979493;28;20470;-68
2024/01/05 12:35:52;;;;;;;4.03;1.40;;;9.40;99.90;;;;;;4979267;28;20437;-69
2024/01/05 12:38:23;;;;;;;1.80;1.47;;;9.50;99.90;;;;;;4987951;28;20513;-68
2024/01/05 12:40:51;;;;;;;2.77;1.20;;;9.50;99.90;;;;;;4982900;28;20498;-68
2024/01/05 12:43:18;;;;;;;1.37;1.17;;;9.30;99.90;;;;;;4993489;28;20960;-67
2024/01/05 12:45:48;;;;;;;3.53;1.20;;;9.10;99.90;;;;;;4986441;28;20487;-68
2024/01/05 12:48:16;;;;;;;2.20;2.00;;;9.00;99.90;;;;;;4983693;28;20451;-68
2024/01/05 12:50:44;;;;;;;3.53;1.40;;;9.00;99.90;;;;;;4988534;28;20447;-68
2024/01/05 12:53:18;;;;;;;3.33;2.67;;;9.10;99.90;;;;;;4984204;28;20458;-68
2024/01/05 12:55:44;;;;;;;0.90;0.70;;;9.20;99.90;;;;;;4988399;28;20558;-67
2024/01/05 12:58:11;;;;;;;1.03;0.80;;;9.10;99.90;;;;;;4988465;28;21007;-69
2024/01/05 13:00:42;;;;;;;1.77;0.70;;;9.00;99.90;;;;;;4987504;28;20463;-68
2024/01/05 13:03:17;;;;;;;1.00;0.70;;;9.00;99.90;;;;;;4987745;28;20497;-68